Terminal Aerodrome Forecast
Issued by NWS

Home | Current Version | Previous Version | Text Only | Print | Product List | Glossary Off
Versions: 1 2 3 4 5 6 7 8 9 10 11 12 13 14 15 16 17 18 19 20

000
FTUS43 KBIS 251900 AAA
TAFDIK
TAF AMD
KDIK 251917Z 2519/2618 13014G21KT P6SM OVC005
     FM252000 13015KT P6SM OVC008
     FM260000 16011KT 5SM BR VCSH OVC015
     FM260400 16008KT 4SM -SHRA OVC008=

USA.gov is the U.S. government's official web portal to all federal, state and local government web resources and services.